createdAt,value
2019-03-23T00:01:05.663Z,8.32
2019-03-23T00:03:36.539Z,8.18
2019-03-23T00:06:07.308Z,8.15
2019-03-23T00:08:38.308Z,8.18
2019-03-23T00:11:09.139Z,7.95
2019-03-23T00:13:40.101Z,7.90
2019-03-23T00:16:11.034Z,7.98
2019-03-23T00:18:41.875Z,7.81
2019-03-23T00:21:12.733Z,7.69
2019-03-23T00:23:43.601Z,7.55
2019-03-23T00:26:14.379Z,7.54
2019-03-23T00:28:46.344Z,7.49
2019-03-23T00:31:17.209Z,7.51
2019-03-23T00:33:48.095Z,7.50
2019-03-23T00:36:18.940Z,7.44
2019-03-23T00:38:49.954Z,7.30
2019-03-23T00:41:21.107Z,7.30
2019-03-23T00:43:52.888Z,7.39
2019-03-23T00:46:23.791Z,7.53
2019-03-23T00:48:54.688Z,7.42
2019-03-23T00:51:25.558Z,7.48
2019-03-23T00:53:56.388Z,7.49
2019-03-23T00:56:28.111Z,7.58
2019-03-23T00:58:59.050Z,7.60
2019-03-23T01:01:29.975Z,7.66
2019-03-23T01:04:00.788Z,7.72
2019-03-23T01:06:31.595Z,7.66
2019-03-23T01:09:02.588Z,7.64
2019-03-23T01:11:33.952Z,7.80
2019-03-23T01:14:05.005Z,7.85
2019-03-23T01:16:35.802Z,7.85
2019-03-23T01:19:06.695Z,7.97
2019-03-23T01:21:37.606Z,7.93
2019-03-23T01:24:08.572Z,7.98
2019-03-23T01:26:39.469Z,8.03
2019-03-23T01:29:10.247Z,7.98
2019-03-23T01:31:41.086Z,8.07
2019-03-23T01:34:11.891Z,8.13
2019-03-23T01:36:42.648Z,8.19
2019-03-23T01:39:13.698Z,8.25
2019-03-23T01:41:44.494Z,8.25
2019-03-23T01:44:15.250Z,8.37
2019-03-23T01:46:45.974Z,8.42
2019-03-23T01:49:16.774Z,8.45
2019-03-23T01:51:47.674Z,8.47
2019-03-23T01:54:18.485Z,8.47
2019-03-23T01:56:49.255Z,8.55
2019-03-23T01:59:20.054Z,8.62
2019-03-23T02:01:50.987Z,8.77
2019-03-23T02:04:23.033Z,8.70
2019-03-23T02:06:53.788Z,8.71
2019-03-23T02:09:25.727Z,8.58
2019-03-23T02:11:56.528Z,8.66
2019-03-23T02:14:27.442Z,8.66
2019-03-23T02:16:58.242Z,8.67
2019-03-23T02:19:29.917Z,8.75
2019-03-23T02:22:00.785Z,8.19
2019-03-23T02:24:31.723Z,7.98
2019-03-23T02:27:02.523Z,7.89
2019-03-23T02:29:33.397Z,7.85
2019-03-23T02:32:04.288Z,8.12
2019-03-23T02:34:35.605Z,8.44
2019-03-23T02:37:06.437Z,8.17
2019-03-23T02:39:37.303Z,8.01
2019-03-23T02:42:08.264Z,7.83
2019-03-23T02:44:39.089Z,8.23
2019-03-23T02:47:09.842Z,8.41
2019-03-23T02:49:40.651Z,8.33
2019-03-23T02:52:11.565Z,8.29
2019-03-23T02:54:42.568Z,8.35
2019-03-23T02:57:13.389Z,8.26
2019-03-23T02:59:44.267Z,8.21
2019-03-23T03:02:15.153Z,8.24
2019-03-23T03:04:45.943Z,8.26
2019-03-23T03:07:16.717Z,8.37
2019-03-23T03:09:49.086Z,8.36
2019-03-23T03:12:19.930Z,8.17
2019-03-23T03:14:51.270Z,8.23
2019-03-23T03:17:22.068Z,8.29
2019-03-23T03:19:54.625Z,8.25
2019-03-23T03:22:25.341Z,7.96
2019-03-23T03:24:56.426Z,7.80
2019-03-23T03:27:27.228Z,7.64
2019-03-23T03:29:58.534Z,7.93
2019-03-23T03:32:29.335Z,7.88
2019-03-23T03:35:00.675Z,7.79
2019-03-23T03:37:31.524Z,7.73
2019-03-23T03:40:02.369Z,7.83
2019-03-23T03:42:34.302Z,7.94
2019-03-23T03:45:05.368Z,7.92
2019-03-23T03:47:36.177Z,7.92
2019-03-23T03:50:08.140Z,7.90
2019-03-23T03:52:39.005Z,8.02
2019-03-23T03:55:09.923Z,7.80
2019-03-23T03:57:40.701Z,7.94
2019-03-23T04:00:11.714Z,8.02
2019-03-23T04:02:42.505Z,7.87
2019-03-23T04:05:13.376Z,7.84
2019-03-23T04:07:44.229Z,7.76
2019-03-23T04:10:16.668Z,7.65
2019-03-23T04:12:47.489Z,7.68
2019-03-23T04:15:18.967Z,7.65
2019-03-23T04:17:49.776Z,7.68
2019-03-23T04:20:20.567Z,7.59
2019-03-23T04:22:51.396Z,7.70
2019-03-23T04:25:22.508Z,7.84
2019-03-23T04:27:53.313Z,7.92
2019-03-23T04:30:24.108Z,7.95
2019-03-23T04:32:54.923Z,7.97
2019-03-23T04:35:25.810Z,7.93
2019-03-23T04:37:56.592Z,7.86
2019-03-23T04:40:27.619Z,7.87
2019-03-23T04:42:58.408Z,7.89
2019-03-23T04:45:29.266Z,7.89
2019-03-23T04:48:00.060Z,7.94
2019-03-23T04:50:32.027Z,7.87
2019-03-23T04:53:02.881Z,7.96
2019-03-23T04:55:33.891Z,8.03
2019-03-23T04:58:05.086Z,8.06
2019-03-23T05:00:37.034Z,8.08
2019-03-23T05:03:07.776Z,8.09
2019-03-23T05:05:38.671Z,8.01
2019-03-23T05:08:09.508Z,8.04
2019-03-23T05:10:40.306Z,8.03
2019-03-23T05:13:11.565Z,8.18
2019-03-23T05:15:43.851Z,8.41
2019-03-23T05:18:15.673Z,8.81
2019-03-23T05:20:46.503Z,8.93
2019-03-23T05:23:17.249Z,9.25
2019-03-23T05:25:48.303Z,9.66
2019-03-23T05:28:19.052Z,10.54
2019-03-23T05:30:50.942Z,11.16
2019-03-23T05:33:21.702Z,11.38
2019-03-23T05:35:52.560Z,10.23
2019-03-23T05:38:23.365Z,9.39
2019-03-23T05:40:54.370Z,9.31
2019-03-23T05:43:25.112Z,8.81
2019-03-23T05:45:55.985Z,8.60
2019-03-23T05:48:26.700Z,8.79
2019-03-23T05:50:57.523Z,8.94
2019-03-23T05:53:28.302Z,8.84
2019-03-23T05:55:59.277Z,9.23
2019-03-23T05:58:30.085Z,11.46
2019-03-23T06:01:00.982Z,12.09
2019-03-23T06:03:31.702Z,12.45
2019-03-23T06:06:02.532Z,12.20
2019-03-23T06:08:33.324Z,14.13
2019-03-23T06:11:04.256Z,12.58
2019-03-23T06:13:34.998Z,13.43
2019-03-23T06:16:06.092Z,15.26
2019-03-23T06:18:36.894Z,13.66
2019-03-23T06:21:07.664Z,13.58
2019-03-23T06:23:38.483Z,13.83
2019-03-23T06:26:09.355Z,13.77
2019-03-23T06:28:40.086Z,13.91
2019-03-23T06:31:10.830Z,13.49
2019-03-23T06:33:41.595Z,14.48
2019-03-23T06:36:12.441Z,14.60
2019-03-23T06:38:43.143Z,14.75
2019-03-23T06:41:14.146Z,14.48
2019-03-23T06:43:44.878Z,16.57
2019-03-23T06:46:15.684Z,16.08
2019-03-23T06:48:46.462Z,16.83
2019-03-23T06:51:17.258Z,14.46
2019-03-23T06:53:48.001Z,15.83
2019-03-23T06:56:19.031Z,16.26
2019-03-23T06:58:49.764Z,15.85
2019-03-23T07:01:20.541Z,16.02
2019-03-23T07:03:51.271Z,16.15
2019-03-23T07:06:22.145Z,16.82
2019-03-23T07:08:52.902Z,17.26
2019-03-23T07:11:23.818Z,17.19
2019-03-23T07:13:54.575Z,16.64
2019-03-23T07:16:25.600Z,16.46
2019-03-23T07:18:56.331Z,17.27
2019-03-23T07:21:27.135Z,18.12
2019-03-23T07:23:57.910Z,17.97
2019-03-23T07:26:28.767Z,19.11
2019-03-23T07:28:59.493Z,18.89
2019-03-23T07:31:30.296Z,18.19
2019-03-23T07:34:01.059Z,19.56
2019-03-23T07:36:31.876Z,20.81
2019-03-23T07:39:02.655Z,20.49
2019-03-23T07:41:33.537Z,21.08
2019-03-23T07:44:04.395Z,21.73
2019-03-23T07:46:35.293Z,22.99
2019-03-23T07:49:06.163Z,20.86
2019-03-23T07:51:36.947Z,21.43
2019-03-23T07:54:07.722Z,22.49
2019-03-23T07:56:38.700Z,22.27
2019-03-23T07:59:09.474Z,22.13
2019-03-23T08:01:40.272Z,21.67
2019-03-23T08:04:11.061Z,21.22
2019-03-23T08:06:41.907Z,21.71
2019-03-23T08:09:20.368Z,21.77
2019-03-23T08:11:45.209Z,21.40
2019-03-23T08:14:16.027Z,21.53
2019-03-23T08:16:48.323Z,24.14
2019-03-23T08:19:19.093Z,25.52
2019-03-23T08:21:50.007Z,22.74
2019-03-23T08:24:20.786Z,24.09
2019-03-23T08:26:51.693Z,23.48
2019-03-23T08:29:22.473Z,23.48
2019-03-23T08:31:54.509Z,25.27
2019-03-23T08:34:25.484Z,24.72
2019-03-23T08:36:56.356Z,26.03
2019-03-23T08:39:27.145Z,26.23
2019-03-23T08:41:57.958Z,26.31
2019-03-23T08:44:28.719Z,26.92
2019-03-23T08:47:00.626Z,26.75
2019-03-23T08:49:31.738Z,25.45
2019-03-23T08:52:02.518Z,24.53
2019-03-23T08:54:33.269Z,24.39
2019-03-23T08:57:04.209Z,23.67
2019-03-23T08:59:35.010Z,23.99
2019-03-23T09:02:05.975Z,25.19
2019-03-23T09:04:36.820Z,25.32
2019-03-23T09:07:07.659Z,25.25
2019-03-23T09:09:38.355Z,26.01
2019-03-23T09:12:09.315Z,23.46
2019-03-23T09:14:41.129Z,23.10
2019-03-23T09:17:12.308Z,23.35
2019-03-23T09:19:43.065Z,22.72
2019-03-23T09:22:15.007Z,22.89
2019-03-23T09:24:45.817Z,22.36
2019-03-23T09:27:16.684Z,25.24
2019-03-23T09:29:47.439Z,25.18
2019-03-23T09:32:18.267Z,24.23
2019-03-23T09:34:48.994Z,26.56
2019-03-23T09:37:19.811Z,24.30
2019-03-23T09:39:50.566Z,25.98
2019-03-23T09:42:21.352Z,25.32
2019-03-23T09:44:52.129Z,24.33
2019-03-23T09:47:23.140Z,23.73
2019-03-23T09:50:03.240Z,24.00
2019-03-23T09:52:34.079Z,24.69
2019-03-23T09:55:04.982Z,25.17
2019-03-23T09:57:35.845Z,23.86
2019-03-23T10:00:07.594Z,23.43
2019-03-23T10:02:38.429Z,25.13
2019-03-23T10:05:09.694Z,24.21
2019-03-23T10:07:40.501Z,24.34
2019-03-23T10:10:21.268Z,24.32
2019-03-23T10:12:44.333Z,24.17
2019-03-23T10:15:15.693Z,23.32
2019-03-23T10:17:46.906Z,22.93
2019-03-23T10:20:17.703Z,24.44
2019-03-23T10:22:48.519Z,26.01
2019-03-23T10:25:19.267Z,26.01
2019-03-23T10:27:50.589Z,25.01
2019-03-23T10:30:21.479Z,23.80
2019-03-23T10:32:52.354Z,25.48
2019-03-23T10:35:23.114Z,25.43
2019-03-23T10:37:53.848Z,23.96
2019-03-23T10:40:32.513Z,23.06
2019-03-23T10:42:57.442Z,24.99
2019-03-23T10:45:28.204Z,24.02
2019-03-23T10:47:59.043Z,24.02
2019-03-23T10:50:29.968Z,24.96
2019-03-23T10:53:00.742Z,24.68
2019-03-23T10:55:31.463Z,24.65
2019-03-23T10:58:02.443Z,24.11
2019-03-23T11:00:33.203Z,22.61
2019-03-23T11:03:04.067Z,23.21
2019-03-23T11:05:34.904Z,24.06
2019-03-23T11:08:05.839Z,24.06
2019-03-23T11:10:41.776Z,23.83
2019-03-23T11:13:09.444Z,22.81
2019-03-23T11:15:40.180Z,24.39
2019-03-23T11:18:11.359Z,22.80
2019-03-23T11:20:42.195Z,23.25
2019-03-23T11:23:12.969Z,22.74
2019-03-23T11:25:43.770Z,23.44
2019-03-23T11:28:14.773Z,22.52
2019-03-23T11:30:45.608Z,23.07
2019-03-23T11:33:16.430Z,23.90
2019-03-23T11:35:57.257Z,23.04
2019-03-23T11:38:19.657Z,22.49
2019-03-23T11:40:54.946Z,23.25
2019-03-23T11:43:23.210Z,23.12
2019-03-23T11:45:54.053Z,22.94
2019-03-23T11:48:24.883Z,24.23
2019-03-23T11:50:55.758Z,23.20
2019-03-23T11:53:26.540Z,23.25
2019-03-23T11:55:57.284Z,23.08
2019-03-23T11:58:28.095Z,23.39
2019-03-23T12:00:58.969Z,23.47
2019-03-23T12:03:29.823Z,22.83
2019-03-23T12:06:00.571Z,23.18
2019-03-23T12:08:31.355Z,22.63
2019-03-23T12:11:03.173Z,21.99
2019-03-23T12:13:34.309Z,22.65
2019-03-23T12:16:05.220Z,22.17
2019-03-23T12:18:36.182Z,21.99
2019-03-23T12:21:06.990Z,22.08
2019-03-23T12:23:37.911Z,21.93
2019-03-23T12:26:08.661Z,22.13
2019-03-23T12:28:39.581Z,22.23
2019-03-23T12:31:10.370Z,23.24
2019-03-23T12:33:41.157Z,22.67
2019-03-23T12:36:11.880Z,21.68
2019-03-23T12:38:42.666Z,21.56
2019-03-23T12:41:22.985Z,22.48
2019-03-23T12:43:47.154Z,22.38
2019-03-23T12:46:17.917Z,21.70
2019-03-23T12:48:50.333Z,22.04
2019-03-23T12:51:22.216Z,21.17
2019-03-23T12:53:53.001Z,21.15
2019-03-23T12:56:23.836Z,20.94
2019-03-23T12:58:54.678Z,21.26
2019-03-23T13:01:25.511Z,21.41
2019-03-23T13:03:56.315Z,21.23
2019-03-23T13:06:27.077Z,21.69
2019-03-23T13:08:57.929Z,21.75
2019-03-23T13:11:34.830Z,21.42
2019-03-23T13:14:01.276Z,21.47
2019-03-23T13:16:32.077Z,22.29
2019-03-23T13:19:04.218Z,21.14
2019-03-23T13:21:37.343Z,21.42
2019-03-23T13:24:08.231Z,21.87
2019-03-23T13:26:39.918Z,21.64
2019-03-23T13:29:10.885Z,21.87
2019-03-23T13:31:41.767Z,21.86
2019-03-23T13:34:13.982Z,21.99
2019-03-23T13:36:44.782Z,22.02
2019-03-23T13:39:15.650Z,20.90
2019-03-23T13:41:58.068Z,21.14
2019-03-23T13:44:30.769Z,21.95
2019-03-23T13:47:01.527Z,21.59
2019-03-23T13:49:32.338Z,21.51
2019-03-23T13:52:03.198Z,21.78
2019-03-23T13:54:34.110Z,20.75
2019-03-23T13:57:04.871Z,20.85
2019-03-23T13:59:37.271Z,21.12
2019-03-23T14:02:08.153Z,20.85
2019-03-23T14:04:39.040Z,20.88
2019-03-23T14:07:09.799Z,21.30
2019-03-23T14:09:40.615Z,21.53
2019-03-23T14:12:11.408Z,21.15
2019-03-23T14:14:43.333Z,21.04
2019-03-23T14:17:14.168Z,20.71
2019-03-23T14:19:45.409Z,21.27
2019-03-23T14:22:16.275Z,21.01
2019-03-23T14:24:47.090Z,21.03
2019-03-23T14:27:17.885Z,21.03
2019-03-23T14:29:48.798Z,20.45
2019-03-23T14:32:19.617Z,20.45
2019-03-23T14:34:50.420Z,20.51
2019-03-23T14:37:21.213Z,20.93
2019-03-23T14:39:51.994Z,20.94
2019-03-23T14:42:22.839Z,20.97
2019-03-23T14:44:53.744Z,20.63
2019-03-23T14:47:24.607Z,20.44
2019-03-23T14:49:55.475Z,20.41
2019-03-23T14:52:26.328Z,20.65
2019-03-23T14:54:57.139Z,20.17
2019-03-23T14:57:29.132Z,20.49
2019-03-23T15:00:00.298Z,20.32
2019-03-23T15:02:31.119Z,20.74
2019-03-23T15:05:02.014Z,20.94
2019-03-23T15:07:33.985Z,20.25
2019-03-23T15:10:05.679Z,20.42
2019-03-23T15:12:36.530Z,20.39
2019-03-23T15:15:07.646Z,20.40
2019-03-23T15:17:48.458Z,20.22
2019-03-23T15:20:12.814Z,20.21
2019-03-23T15:22:43.710Z,20.02
2019-03-23T15:25:14.503Z,20.07
2019-03-23T15:27:45.253Z,20.29
2019-03-23T15:30:16.051Z,19.87
2019-03-23T15:32:49.201Z,19.81
2019-03-23T15:35:19.948Z,19.60
2019-03-23T15:37:50.697Z,19.90
2019-03-23T15:40:21.478Z,19.89
2019-03-23T15:42:52.312Z,19.96
2019-03-23T15:45:23.598Z,19.80
2019-03-23T15:47:55.387Z,19.84
2019-03-23T15:50:26.203Z,19.54
2019-03-23T15:52:57.036Z,19.39
2019-03-23T15:55:28.850Z,19.76
2019-03-23T15:58:00.709Z,19.40
2019-03-23T16:00:31.843Z,19.54
2019-03-23T16:03:02.679Z,19.61
2019-03-23T16:05:34.704Z,19.21
2019-03-23T16:08:05.448Z,19.12
2019-03-23T16:10:37.295Z,19.30
2019-03-23T16:13:08.138Z,19.12
2019-03-23T16:15:39.345Z,19.11
2019-03-23T16:18:10.100Z,19.03
2019-03-23T16:20:41.313Z,19.24
2019-03-23T16:23:12.105Z,19.30
2019-03-23T16:25:43.002Z,18.68
2019-03-23T16:28:13.755Z,18.85
2019-03-23T16:30:44.554Z,18.93
2019-03-23T16:33:15.377Z,18.65
2019-03-23T16:35:46.246Z,18.44
2019-03-23T16:38:17.074Z,18.63
2019-03-23T16:40:47.858Z,18.59
2019-03-23T16:43:18.597Z,18.44
2019-03-23T16:45:49.589Z,18.10
2019-03-23T16:48:20.347Z,17.80
2019-03-23T16:50:51.174Z,17.74
2019-03-23T16:53:21.875Z,17.74
2019-03-23T16:55:52.718Z,18.09
2019-03-23T16:58:23.478Z,18.07
2019-03-23T17:00:54.380Z,18.23
2019-03-23T17:03:25.127Z,18.00
2019-03-23T17:05:55.962Z,17.65
2019-03-23T17:08:26.712Z,17.84
2019-03-23T17:10:57.447Z,17.58
2019-03-23T17:13:28.297Z,17.71
2019-03-23T17:15:59.272Z,17.39
2019-03-23T17:18:30.134Z,17.21
2019-03-23T17:21:01.284Z,16.95
2019-03-23T17:23:32.148Z,17.07
2019-03-23T17:26:02.976Z,17.09
2019-03-23T17:28:33.822Z,16.53
2019-03-23T17:31:04.607Z,16.84
2019-03-23T17:33:35.392Z,16.84
2019-03-23T17:36:06.263Z,16.79
2019-03-23T17:38:38.198Z,16.62
2019-03-23T17:41:10.380Z,16.56
2019-03-23T17:43:41.419Z,16.45
2019-03-23T17:46:12.484Z,15.94
2019-03-23T17:48:43.382Z,16.18
2019-03-23T17:51:14.155Z,15.82
2019-03-23T17:53:44.929Z,15.81
2019-03-23T17:56:15.719Z,15.81
2019-03-23T17:58:46.481Z,16.07
2019-03-23T18:01:19.598Z,15.90
2019-03-23T18:03:50.613Z,15.54
2019-03-23T18:06:21.478Z,15.46
2019-03-23T18:08:52.201Z,15.45
2019-03-23T18:11:23.034Z,15.01
2019-03-23T18:13:53.833Z,15.25
2019-03-23T18:16:25.038Z,15.22
2019-03-23T18:18:55.882Z,15.39
2019-03-23T18:21:26.950Z,15.14
2019-03-23T18:23:57.718Z,15.16
2019-03-23T18:26:28.492Z,15.22
2019-03-23T18:28:59.297Z,15.02
2019-03-23T18:31:30.062Z,15.14
2019-03-23T18:34:00.817Z,14.86
2019-03-23T18:36:31.665Z,14.81
2019-03-23T18:39:04.778Z,14.49
2019-03-23T18:41:35.758Z,14.31
2019-03-23T18:44:15.745Z,14.54
2019-03-23T18:46:39.233Z,14.34
2019-03-23T18:49:10.026Z,14.40
2019-03-23T18:51:40.789Z,14.54
2019-03-23T18:54:11.539Z,14.30
2019-03-23T18:56:42.293Z,13.57
2019-03-23T18:59:13.137Z,13.72
2019-03-23T19:01:43.933Z,13.91
2019-03-23T19:04:14.686Z,13.44
2019-03-23T19:06:45.456Z,13.46
2019-03-23T19:09:16.254Z,14.02
2019-03-23T19:11:47.047Z,13.61
2019-03-23T19:14:17.825Z,13.66
2019-03-23T19:16:48.639Z,13.11
2019-03-23T19:19:19.399Z,13.02
2019-03-23T19:21:51.753Z,13.07
2019-03-23T19:24:22.509Z,12.57
2019-03-23T19:26:53.279Z,12.80
2019-03-23T19:29:24.029Z,12.60
2019-03-23T19:31:55.013Z,12.59
2019-03-23T19:34:25.757Z,12.68
2019-03-23T19:36:56.658Z,12.48
2019-03-23T19:39:27.469Z,12.59
2019-03-23T19:41:58.338Z,12.96
2019-03-23T19:44:29.106Z,13.18
2019-03-23T19:46:59.935Z,12.97
2019-03-23T19:49:30.695Z,13.31
2019-03-23T19:52:01.520Z,13.00
2019-03-23T19:54:32.342Z,12.81
2019-03-23T19:57:03.162Z,13.03
2019-03-23T19:59:33.925Z,13.02
2019-03-23T20:02:04.954Z,12.16
2019-03-23T20:04:35.739Z,11.93
2019-03-23T20:07:06.717Z,12.16
2019-03-23T20:09:37.517Z,12.14
2019-03-23T20:12:10.000Z,12.66
2019-03-23T20:14:41.726Z,12.40
2019-03-23T20:17:12.719Z,12.38
2019-03-23T20:19:43.449Z,11.98
2019-03-23T20:22:14.674Z,12.06
2019-03-23T20:24:45.430Z,12.10
2019-03-23T20:27:16.276Z,12.61
2019-03-23T20:29:47.062Z,12.21
2019-03-23T20:32:18.015Z,12.45
2019-03-23T20:34:48.759Z,12.49
2019-03-23T20:37:19.542Z,12.34
2019-03-23T20:39:50.307Z,11.95
2019-03-23T20:42:21.173Z,11.47
2019-03-23T20:44:51.905Z,11.28
2019-03-23T20:47:22.733Z,11.25
2019-03-23T20:49:54.362Z,10.81
2019-03-23T20:52:25.262Z,11.01
2019-03-23T20:54:56.305Z,10.73
2019-03-23T20:57:36.991Z,10.74
2019-03-23T20:59:59.640Z,10.94
2019-03-23T21:02:30.492Z,10.91
2019-03-23T21:05:01.226Z,10.85
2019-03-23T21:07:32.056Z,10.77
2019-03-23T21:10:02.847Z,11.21
2019-03-23T21:12:33.725Z,10.92
2019-03-23T21:15:04.645Z,10.73
2019-03-23T21:17:35.641Z,10.56
2019-03-23T21:20:07.517Z,10.31
2019-03-23T21:22:38.581Z,10.43
2019-03-23T21:25:09.552Z,10.45
2019-03-23T21:27:40.334Z,10.42
2019-03-23T21:30:13.902Z,10.25
2019-03-23T21:32:44.902Z,10.44
2019-03-23T21:35:16.057Z,10.34
2019-03-23T21:37:46.944Z,10.56
2019-03-23T21:40:17.735Z,10.44
2019-03-23T21:42:49.092Z,10.58
2019-03-23T21:45:19.871Z,10.89
2019-03-23T21:47:51.057Z,10.72
2019-03-23T21:50:21.834Z,10.75
2019-03-23T21:52:52.660Z,10.93
2019-03-23T21:55:23.418Z,11.28
2019-03-23T21:57:55.274Z,10.91
2019-03-23T22:00:33.902Z,11.20
2019-03-23T22:03:04.909Z,10.76
2019-03-23T22:05:35.744Z,11.26
2019-03-23T22:08:06.503Z,10.87
2019-03-23T22:10:37.280Z,11.05
2019-03-23T22:13:08.087Z,11.00
2019-03-23T22:15:38.901Z,10.96
2019-03-23T22:18:09.688Z,10.83
2019-03-23T22:20:41.408Z,11.10
2019-03-23T22:23:12.421Z,10.81
2019-03-23T22:25:44.873Z,11.14
2019-03-23T22:28:15.740Z,11.10
2019-03-23T22:30:46.510Z,10.48
2019-03-23T22:33:17.396Z,10.42
2019-03-23T22:35:48.227Z,10.55
2019-03-23T22:38:19.018Z,10.06
2019-03-23T22:40:49.851Z,10.08
2019-03-23T22:43:20.666Z,10.06
2019-03-23T22:45:51.556Z,10.26
2019-03-23T22:48:22.352Z,10.48
2019-03-23T22:50:53.137Z,9.83
2019-03-23T22:53:23.867Z,9.74
2019-03-23T22:55:54.676Z,9.97
2019-03-23T22:58:25.452Z,9.87
2019-03-23T23:00:56.313Z,10.04
2019-03-23T23:03:27.184Z,10.35
2019-03-23T23:05:57.997Z,10.59
2019-03-23T23:08:28.767Z,10.49
2019-03-23T23:11:00.576Z,10.34
2019-03-23T23:13:31.336Z,10.61
2019-03-23T23:16:02.155Z,10.68
2019-03-23T23:18:33.127Z,10.15
2019-03-23T23:21:03.878Z,10.03
2019-03-23T23:23:34.988Z,10.25
2019-03-23T23:26:06.764Z,10.29
2019-03-23T23:28:37.576Z,10.46
2019-03-23T23:31:08.371Z,10.12
2019-03-23T23:33:39.202Z,10.22
2019-03-23T23:36:10.045Z,10.43
2019-03-23T23:38:40.834Z,10.29
2019-03-23T23:41:12.123Z,9.94
2019-03-23T23:43:42.898Z,10.06
2019-03-23T23:46:13.672Z,10.30
2019-03-23T23:48:51.266Z,9.95
2019-03-23T23:51:17.086Z,9.97
2019-03-23T23:53:47.852Z,10.00
2019-03-23T23:56:18.633Z,9.69
2019-03-23T23:58:49.390Z,9.33
